sensor_id;sensor_type;location;lat;lon;timestamp;P1;durP1;ratioP1;P2;durP2;ratioP2
23290;SDS011;11814;44.686;10.842;2022-11-15T00:02:12;88.70;;;45.22;;
23290;SDS011;11814;44.686;10.842;2022-11-15T00:04:38;86.05;;;43.53;;
23290;SDS011;11814;44.686;10.842;2022-11-15T00:07:03;87.28;;;44.88;;
23290;SDS011;11814;44.686;10.842;2022-11-15T00:09:29;89.88;;;45.92;;
23290;SDS011;11814;44.686;10.842;2022-11-15T00:11:55;97.75;;;47.30;;
23290;SDS011;11814;44.686;10.842;2022-11-15T00:14:20;90.65;;;45.85;;
23290;SDS011;11814;44.686;10.842;2022-11-15T00:16:46;92.47;;;47.03;;
23290;SDS011;11814;44.686;10.842;2022-11-15T00:19:12;82.80;;;42.60;;
23290;SDS011;11814;44.686;10.842;2022-11-15T00:21:37;90.22;;;45.85;;
23290;SDS011;11814;44.686;10.842;2022-11-15T00:24:03;82.70;;;41.75;;
23290;SDS011;11814;44.686;10.842;2022-11-15T00:26:29;81.05;;;41.22;;
23290;SDS011;11814;44.686;10.842;2022-11-15T00:28:55;81.22;;;41.92;;
23290;SDS011;11814;44.686;10.842;2022-11-15T00:31:20;90.53;;;45.13;;
23290;SDS011;11814;44.686;10.842;2022-11-15T00:33:46;86.43;;;44.30;;
23290;SDS011;11814;44.686;10.842;2022-11-15T00:36:12;87.00;;;42.85;;
23290;SDS011;11814;44.686;10.842;2022-11-15T00:38:38;91.78;;;43.65;;
23290;SDS011;11814;44.686;10.842;2022-11-15T00:41:06;87.28;;;43.88;;
23290;SDS011;11814;44.686;10.842;2022-11-15T00:43:32;83.28;;;41.13;;
23290;SDS011;11814;44.686;10.842;2022-11-15T00:45:58;85.53;;;43.15;;
23290;SDS011;11814;44.686;10.842;2022-11-15T00:48:24;89.38;;;43.53;;
23290;SDS011;11814;44.686;10.842;2022-11-15T00:50:49;93.03;;;46.50;;
23290;SDS011;11814;44.686;10.842;2022-11-15T00:53:16;87.15;;;44.67;;
23290;SDS011;11814;44.686;10.842;2022-11-15T00:55:42;85.85;;;43.95;;
23290;SDS011;11814;44.686;10.842;2022-11-15T00:58:08;88.13;;;43.00;;
23290;SDS011;11814;44.686;10.842;2022-11-15T01:00:34;78.78;;;40.90;;
23290;SDS011;11814;44.686;10.842;2022-11-15T01:03:00;81.10;;;42.53;;
23290;SDS011;11814;44.686;10.842;2022-11-15T01:05:26;86.53;;;41.53;;
23290;SDS011;11814;44.686;10.842;2022-11-15T01:07:53;83.60;;;42.80;;
23290;SDS011;11814;44.686;10.842;2022-11-15T01:10:20;82.75;;;41.88;;
23290;SDS011;11814;44.686;10.842;2022-11-15T01:12:47;91.60;;;45.95;;
23290;SDS011;11814;44.686;10.842;2022-11-15T01:15:13;86.07;;;43.33;;
23290;SDS011;11814;44.686;10.842;2022-11-15T01:17:39;83.45;;;43.13;;
23290;SDS011;11814;44.686;10.842;2022-11-15T01:20:05;87.97;;;45.58;;
23290;SDS011;11814;44.686;10.842;2022-11-15T01:22:31;86.28;;;42.65;;
23290;SDS011;11814;44.686;10.842;2022-11-15T01:24:57;83.57;;;42.58;;
23290;SDS011;11814;44.686;10.842;2022-11-15T01:27:23;84.32;;;42.33;;
23290;SDS011;11814;44.686;10.842;2022-11-15T01:29:49;80.53;;;41.50;;
23290;SDS011;11814;44.686;10.842;2022-11-15T01:32:14;92.25;;;44.85;;
23290;SDS011;11814;44.686;10.842;2022-11-15T01:34:41;92.00;;;44.60;;
23290;SDS011;11814;44.686;10.842;2022-11-15T01:37:06;92.47;;;44.78;;
23290;SDS011;11814;44.686;10.842;2022-11-15T01:39:33;89.65;;;44.05;;
23290;SDS011;11814;44.686;10.842;2022-11-15T01:41:58;83.30;;;43.03;;
23290;SDS011;11814;44.686;10.842;2022-11-15T01:46:59;83.22;;;41.50;;
23290;SDS011;11814;44.686;10.842;2022-11-15T01:49:35;87.97;;;42.38;;
23290;SDS011;11814;44.686;10.842;2022-11-15T01:52:05;75.50;;;38.58;;
23290;SDS011;11814;44.686;10.842;2022-11-15T01:54:33;73.82;;;38.63;;
23290;SDS011;11814;44.686;10.842;2022-11-15T01:57:01;82.20;;;41.80;;
23290;SDS011;11814;44.686;10.842;2022-11-15T01:59:31;88.22;;;41.55;;
23290;SDS011;11814;44.686;10.842;2022-11-15T02:01:58;79.38;;;39.55;;
23290;SDS011;11814;44.686;10.842;2022-11-15T02:04:25;90.88;;;43.28;;
23290;SDS011;11814;44.686;10.842;2022-11-15T02:06:53;90.70;;;43.22;;
23290;SDS011;11814;44.686;10.842;2022-11-15T02:09:18;97.07;;;45.40;;
23290;SDS011;11814;44.686;10.842;2022-11-15T02:11:44;96.82;;;44.05;;
23290;SDS011;11814;44.686;10.842;2022-11-15T02:14:12;95.97;;;45.20;;
23290;SDS011;11814;44.686;10.842;2022-11-15T02:27:52;82.40;;;39.72;;
23290;SDS011;11814;44.686;10.842;2022-11-15T02:30:40;80.40;;;40.38;;
23290;SDS011;11814;44.686;10.842;2022-11-15T02:36:01;58.28;;;33.50;;
23290;SDS011;11814;44.686;10.842;2022-11-15T02:41:35;79.70;;;39.38;;
23290;SDS011;11814;44.686;10.842;2022-11-15T02:49:36;76.53;;;39.83;;
23290;SDS011;11814;44.686;10.842;2022-11-15T02:52:04;81.85;;;40.08;;
23290;SDS011;11814;44.686;10.842;2022-11-15T02:54:31;74.97;;;38.63;;
23290;SDS011;11814;44.686;10.842;2022-11-15T02:57:06;71.18;;;36.63;;
23290;SDS011;11814;44.686;10.842;2022-11-15T03:16:01;65.20;;;33.63;;
23290;SDS011;11814;44.686;10.842;2022-11-15T03:18:31;72.60;;;36.33;;
23290;SDS011;11814;44.686;10.842;2022-11-15T03:21:04;65.97;;;32.83;;
23290;SDS011;11814;44.686;10.842;2022-11-15T03:23:33;65.65;;;33.95;;
23290;SDS011;11814;44.686;10.842;2022-11-15T03:26:00;81.38;;;41.30;;
23290;SDS011;11814;44.686;10.842;2022-11-15T03:28:34;83.18;;;39.15;;
23290;SDS011;11814;44.686;10.842;2022-11-15T03:31:07;79.15;;;39.47;;
23290;SDS011;11814;44.686;10.842;2022-11-15T03:33:54;85.38;;;41.33;;
23290;SDS011;11814;44.686;10.842;2022-11-15T03:36:23;87.15;;;43.00;;
23290;SDS011;11814;44.686;10.842;2022-11-15T03:38:52;91.63;;;43.33;;
23290;SDS011;11814;44.686;10.842;2022-11-15T03:41:24;92.03;;;46.45;;
23290;SDS011;11814;44.686;10.842;2022-11-15T03:46:45;88.82;;;42.22;;
23290;SDS011;11814;44.686;10.842;2022-11-15T03:49:20;90.25;;;44.75;;
23290;SDS011;11814;44.686;10.842;2022-11-15T03:51:51;97.13;;;43.85;;
23290;SDS011;11814;44.686;10.842;2022-11-15T03:54:17;81.68;;;40.60;;
23290;SDS011;11814;44.686;10.842;2022-11-15T03:56:43;77.15;;;38.00;;
23290;SDS011;11814;44.686;10.842;2022-11-15T03:59:09;72.05;;;38.13;;
23290;SDS011;11814;44.686;10.842;2022-11-15T04:01:34;87.30;;;40.53;;
23290;SDS011;11814;44.686;10.842;2022-11-15T04:04:00;80.32;;;40.22;;
23290;SDS011;11814;44.686;10.842;2022-11-15T04:06:26;84.88;;;43.13;;
23290;SDS011;11814;44.686;10.842;2022-11-15T04:08:52;83.93;;;41.72;;
23290;SDS011;11814;44.686;10.842;2022-11-15T04:11:18;86.70;;;42.22;;
23290;SDS011;11814;44.686;10.842;2022-11-15T04:13:43;89.80;;;43.15;;
23290;SDS011;11814;44.686;10.842;2022-11-15T04:16:09;79.70;;;40.75;;
23290;SDS011;11814;44.686;10.842;2022-11-15T04:18:35;82.10;;;39.75;;
23290;SDS011;11814;44.686;10.842;2022-11-15T04:21:01;73.85;;;37.60;;
23290;SDS011;11814;44.686;10.842;2022-11-15T04:23:45;82.03;;;39.83;;
23290;SDS011;11814;44.686;10.842;2022-11-15T04:26:29;91.72;;;39.28;;
23290;SDS011;11814;44.686;10.842;2022-11-15T04:28:55;75.38;;;38.25;;
23290;SDS011;11814;44.686;10.842;2022-11-15T04:31:40;76.05;;;37.85;;
23290;SDS011;11814;44.686;10.842;2022-11-15T04:34:05;80.75;;;38.08;;
23290;SDS011;11814;44.686;10.842;2022-11-15T04:36:31;66.65;;;35.53;;
23290;SDS011;11814;44.686;10.842;2022-11-15T04:39:15;68.25;;;35.33;;
23290;SDS011;11814;44.686;10.842;2022-11-15T04:41:41;69.57;;;35.83;;
23290;SDS011;11814;44.686;10.842;2022-11-15T04:44:07;72.78;;;37.38;;
23290;SDS011;11814;44.686;10.842;2022-11-15T04:46:32;74.45;;;36.47;;
23290;SDS011;11814;44.686;10.842;2022-11-15T04:48:58;74.97;;;37.67;;
23290;SDS011;11814;44.686;10.842;2022-11-15T04:51:24;75.50;;;39.20;;
23290;SDS011;11814;44.686;10.842;2022-11-15T04:53:49;71.60;;;35.85;;
23290;SDS011;11814;44.686;10.842;2022-11-15T04:56:15;65.65;;;34.95;;
23290;SDS011;11814;44.686;10.842;2022-11-15T04:58:41;74.03;;;36.40;;
23290;SDS011;11814;44.686;10.842;2022-11-15T05:01:10;71.72;;;36.35;;
23290;SDS011;11814;44.686;10.842;2022-11-15T05:03:39;66.18;;;34.80;;
23290;SDS011;11814;44.686;10.842;2022-11-15T05:06:27;71.53;;;35.67;;
23290;SDS011;11814;44.686;10.842;2022-11-15T05:08:53;74.32;;;37.13;;
23290;SDS011;11814;44.686;10.842;2022-11-15T05:11:19;71.20;;;34.75;;
23290;SDS011;11814;44.686;10.842;2022-11-15T05:13:45;67.05;;;35.38;;
23290;SDS011;11814;44.686;10.842;2022-11-15T05:16:11;66.95;;;35.50;;
23290;SDS011;11814;44.686;10.842;2022-11-15T05:18:37;73.78;;;36.30;;
23290;SDS011;11814;44.686;10.842;2022-11-15T05:21:10;70.65;;;35.95;;
23290;SDS011;11814;44.686;10.842;2022-11-15T05:23:37;72.78;;;37.35;;
23290;SDS011;11814;44.686;10.842;2022-11-15T05:26:04;75.97;;;37.33;;
23290;SDS011;11814;44.686;10.842;2022-11-15T05:28:31;76.95;;;37.42;;
23290;SDS011;11814;44.686;10.842;2022-11-15T05:31:03;68.30;;;35.30;;
23290;SDS011;11814;44.686;10.842;2022-11-15T05:33:31;68.65;;;36.58;;
23290;SDS011;11814;44.686;10.842;2022-11-15T05:36:00;78.03;;;35.95;;
23290;SDS011;11814;44.686;10.842;2022-11-15T05:38:29;68.15;;;34.92;;
23290;SDS011;11814;44.686;10.842;2022-11-15T05:40:55;72.90;;;36.67;;
23290;SDS011;11814;44.686;10.842;2022-11-15T05:43:21;72.60;;;35.80;;
23290;SDS011;11814;44.686;10.842;2022-11-15T05:45:47;73.65;;;36.88;;
23290;SDS011;11814;44.686;10.842;2022-11-15T05:48:14;75.32;;;37.33;;
23290;SDS011;11814;44.686;10.842;2022-11-15T05:50:41;72.03;;;36.83;;
23290;SDS011;11814;44.686;10.842;2022-11-15T05:53:09;68.05;;;35.80;;
23290;SDS011;11814;44.686;10.842;2022-11-15T05:55:38;72.03;;;36.25;;
23290;SDS011;11814;44.686;10.842;2022-11-15T05:58:04;66.97;;;35.47;;
23290;SDS011;11814;44.686;10.842;2022-11-15T06:00:30;65.68;;;34.90;;
23290;SDS011;11814;44.686;10.842;2022-11-15T06:02:56;59.45;;;32.70;;
23290;SDS011;11814;44.686;10.842;2022-11-15T06:05:22;62.35;;;34.10;;
23290;SDS011;11814;44.686;10.842;2022-11-15T06:07:47;62.90;;;32.90;;
23290;SDS011;11814;44.686;10.842;2022-11-15T06:10:13;60.38;;;31.65;;
23290;SDS011;11814;44.686;10.842;2022-11-15T06:12:39;65.35;;;33.55;;
23290;SDS011;11814;44.686;10.842;2022-11-15T06:15:05;66.10;;;33.95;;
23290;SDS011;11814;44.686;10.842;2022-11-15T06:17:31;64.93;;;33.00;;
23290;SDS011;11814;44.686;10.842;2022-11-15T06:19:56;62.88;;;34.40;;
23290;SDS011;11814;44.686;10.842;2022-11-15T06:22:22;64.85;;;34.58;;
23290;SDS011;11814;44.686;10.842;2022-11-15T06:24:48;72.05;;;34.75;;
23290;SDS011;11814;44.686;10.842;2022-11-15T06:27:14;67.53;;;35.17;;
23290;SDS011;11814;44.686;10.842;2022-11-15T06:29:39;67.18;;;34.97;;
23290;SDS011;11814;44.686;10.842;2022-11-15T06:32:05;66.45;;;34.65;;
23290;SDS011;11814;44.686;10.842;2022-11-15T06:34:31;67.78;;;34.72;;
23290;SDS011;11814;44.686;10.842;2022-11-15T06:36:57;63.13;;;32.47;;
23290;SDS011;11814;44.686;10.842;2022-11-15T06:39:22;72.00;;;33.63;;
23290;SDS011;11814;44.686;10.842;2022-11-15T06:41:48;65.82;;;33.28;;
23290;SDS011;11814;44.686;10.842;2022-11-15T06:44:14;62.15;;;33.08;;
23290;SDS011;11814;44.686;10.842;2022-11-15T06:46:39;58.60;;;32.90;;
23290;SDS011;11814;44.686;10.842;2022-11-15T06:49:05;67.63;;;33.50;;
23290;SDS011;11814;44.686;10.842;2022-11-15T06:51:31;71.13;;;36.63;;
23290;SDS011;11814;44.686;10.842;2022-11-15T06:53:56;67.57;;;35.72;;
23290;SDS011;11814;44.686;10.842;2022-11-15T06:56:22;69.15;;;34.67;;
23290;SDS011;11814;44.686;10.842;2022-11-15T06:58:48;73.95;;;35.60;;
23290;SDS011;11814;44.686;10.842;2022-11-15T07:01:13;78.53;;;37.22;;
23290;SDS011;11814;44.686;10.842;2022-11-15T07:03:40;75.57;;;37.13;;
23290;SDS011;11814;44.686;10.842;2022-11-15T07:06:07;80.57;;;37.75;;
23290;SDS011;11814;44.686;10.842;2022-11-15T07:08:34;77.18;;;37.00;;
23290;SDS011;11814;44.686;10.842;2022-11-15T07:11:04;76.70;;;36.40;;
23290;SDS011;11814;44.686;10.842;2022-11-15T07:13:31;79.50;;;37.67;;
23290;SDS011;11814;44.686;10.842;2022-11-15T07:15:58;78.75;;;36.17;;
23290;SDS011;11814;44.686;10.842;2022-11-15T07:18:27;74.40;;;39.28;;
23290;SDS011;11814;44.686;10.842;2022-11-15T07:20:52;78.10;;;37.20;;
23290;SDS011;11814;44.686;10.842;2022-11-15T07:23:18;66.60;;;34.17;;
23290;SDS011;11814;44.686;10.842;2022-11-15T07:25:44;77.90;;;36.88;;
23290;SDS011;11814;44.686;10.842;2022-11-15T07:28:09;72.32;;;35.50;;
23290;SDS011;11814;44.686;10.842;2022-11-15T07:30:35;74.40;;;34.95;;
23290;SDS011;11814;44.686;10.842;2022-11-15T07:33:01;71.75;;;35.80;;
23290;SDS011;11814;44.686;10.842;2022-11-15T07:35:27;77.22;;;35.08;;
23290;SDS011;11814;44.686;10.842;2022-11-15T07:37:58;69.80;;;35.47;;
23290;SDS011;11814;44.686;10.842;2022-11-15T07:40:26;71.00;;;35.33;;
23290;SDS011;11814;44.686;10.842;2022-11-15T07:43:00;73.13;;;34.67;;
23290;SDS011;11814;44.686;10.842;2022-11-15T07:45:27;68.90;;;32.97;;
23290;SDS011;11814;44.686;10.842;2022-11-15T07:47:53;69.55;;;33.15;;
23290;SDS011;11814;44.686;10.842;2022-11-15T07:50:20;70.28;;;33.95;;
23290;SDS011;11814;44.686;10.842;2022-11-15T07:52:53;71.57;;;34.42;;
23290;SDS011;11814;44.686;10.842;2022-11-15T07:55:20;67.30;;;33.75;;
23290;SDS011;11814;44.686;10.842;2022-11-15T07:57:47;70.28;;;33.65;;
23290;SDS011;11814;44.686;10.842;2022-11-15T08:00:13;69.57;;;32.97;;
23290;SDS011;11814;44.686;10.842;2022-11-15T08:02:39;70.82;;;34.33;;
23290;SDS011;11814;44.686;10.842;2022-11-15T08:05:05;64.40;;;34.20;;
23290;SDS011;11814;44.686;10.842;2022-11-15T08:07:31;73.55;;;35.58;;
23290;SDS011;11814;44.686;10.842;2022-11-15T08:09:57;76.28;;;37.67;;
23290;SDS011;11814;44.686;10.842;2022-11-15T08:12:23;93.97;;;39.88;;
23290;SDS011;11814;44.686;10.842;2022-11-15T08:14:49;85.55;;;37.90;;
23290;SDS011;11814;44.686;10.842;2022-11-15T08:17:15;86.72;;;39.40;;
23290;SDS011;11814;44.686;10.842;2022-11-15T08:19:41;85.95;;;38.92;;
23290;SDS011;11814;44.686;10.842;2022-11-15T08:22:07;87.35;;;39.70;;
23290;SDS011;11814;44.686;10.842;2022-11-15T08:24:32;80.20;;;38.90;;
23290;SDS011;11814;44.686;10.842;2022-11-15T08:26:59;76.57;;;38.50;;
23290;SDS011;11814;44.686;10.842;2022-11-15T08:29:24;77.13;;;37.90;;
23290;SDS011;11814;44.686;10.842;2022-11-15T08:31:51;75.50;;;37.55;;
23290;SDS011;11814;44.686;10.842;2022-11-15T08:34:19;80.68;;;37.47;;
23290;SDS011;11814;44.686;10.842;2022-11-15T08:36:45;82.15;;;37.35;;
23290;SDS011;11814;44.686;10.842;2022-11-15T08:39:11;72.60;;;37.53;;
23290;SDS011;11814;44.686;10.842;2022-11-15T08:41:39;74.63;;;37.10;;
23290;SDS011;11814;44.686;10.842;2022-11-15T08:44:05;75.80;;;36.60;;
23290;SDS011;11814;44.686;10.842;2022-11-15T08:46:31;77.10;;;39.15;;
23290;SDS011;11814;44.686;10.842;2022-11-15T08:48:56;79.55;;;39.53;;
23290;SDS011;11814;44.686;10.842;2022-11-15T08:51:22;81.03;;;38.40;;
23290;SDS011;11814;44.686;10.842;2022-11-15T08:53:48;85.38;;;39.03;;
23290;SDS011;11814;44.686;10.842;2022-11-15T08:56:14;80.32;;;40.13;;
23290;SDS011;11814;44.686;10.842;2022-11-15T08:58:40;74.35;;;39.25;;
23290;SDS011;11814;44.686;10.842;2022-11-15T09:01:13;89.78;;;40.15;;
23290;SDS011;11814;44.686;10.842;2022-11-15T09:03:41;90.18;;;40.33;;
23290;SDS011;11814;44.686;10.842;2022-11-15T09:06:07;81.93;;;39.30;;
23290;SDS011;11814;44.686;10.842;2022-11-15T09:08:34;87.18;;;40.97;;
23290;SDS011;11814;44.686;10.842;2022-11-15T09:11:02;81.13;;;38.70;;
23290;SDS011;11814;44.686;10.842;2022-11-15T09:13:29;80.88;;;37.95;;
23290;SDS011;11814;44.686;10.842;2022-11-15T09:15:58;82.53;;;39.92;;
23290;SDS011;11814;44.686;10.842;2022-11-15T09:18:27;86.13;;;38.60;;
23290;SDS011;11814;44.686;10.842;2022-11-15T09:20:57;76.35;;;37.80;;
23290;SDS011;11814;44.686;10.842;2022-11-15T09:23:23;77.15;;;37.83;;
23290;SDS011;11814;44.686;10.842;2022-11-15T09:25:50;76.72;;;37.83;;
23290;SDS011;11814;44.686;10.842;2022-11-15T09:28:16;76.63;;;38.40;;
23290;SDS011;11814;44.686;10.842;2022-11-15T09:30:42;74.50;;;38.10;;
23290;SDS011;11814;44.686;10.842;2022-11-15T09:33:08;74.38;;;36.75;;
23290;SDS011;11814;44.686;10.842;2022-11-15T09:35:35;76.00;;;36.75;;
23290;SDS011;11814;44.686;10.842;2022-11-15T09:38:01;71.95;;;36.63;;
23290;SDS011;11814;44.686;10.842;2022-11-15T09:40:29;68.45;;;36.83;;
23290;SDS011;11814;44.686;10.842;2022-11-15T09:48:41;77.30;;;37.15;;
23290;SDS011;11814;44.686;10.842;2022-11-15T09:51:20;72.90;;;37.33;;
23290;SDS011;11814;44.686;10.842;2022-11-15T09:54:10;73.28;;;36.85;;
23290;SDS011;11814;44.686;10.842;2022-11-15T09:56:50;76.97;;;38.20;;
23290;SDS011;11814;44.686;10.842;2022-11-15T10:04:57;71.55;;;38.15;;
23290;SDS011;11814;44.686;10.842;2022-11-15T10:10:43;78.38;;;40.13;;
23290;SDS011;11814;44.686;10.842;2022-11-15T10:12:51;84.88;;;40.17;;
23290;SDS011;11814;44.686;10.842;2022-11-15T10:15:18;75.05;;;38.83;;
23290;SDS011;11814;44.686;10.842;2022-11-15T10:20:57;78.13;;;39.92;;
23290;SDS011;11814;44.686;10.842;2022-11-15T10:23:25;79.38;;;40.58;;
23290;SDS011;11814;44.686;10.842;2022-11-15T10:25:54;80.00;;;40.75;;
23290;SDS011;11814;44.686;10.842;2022-11-15T10:28:28;79.18;;;40.90;;
23290;SDS011;11814;44.686;10.842;2022-11-15T10:30:56;81.50;;;41.25;;
23290;SDS011;11814;44.686;10.842;2022-11-15T10:33:36;78.82;;;40.65;;
23290;SDS011;11814;44.686;10.842;2022-11-15T10:46:32;77.53;;;39.88;;
23290;SDS011;11814;44.686;10.842;2022-11-15T10:52:04;72.45;;;37.17;;
23290;SDS011;11814;44.686;10.842;2022-11-15T10:54:45;76.47;;;40.67;;
23290;SDS011;11814;44.686;10.842;2022-11-15T10:57:14;73.88;;;38.83;;
23290;SDS011;11814;44.686;10.842;2022-11-15T10:59:42;72.72;;;38.45;;
23290;SDS011;11814;44.686;10.842;2022-11-15T11:02:29;73.40;;;38.53;;
23290;SDS011;11814;44.686;10.842;2022-11-15T11:04:55;82.32;;;41.08;;
23290;SDS011;11814;44.686;10.842;2022-11-15T11:07:31;74.13;;;38.70;;
23290;SDS011;11814;44.686;10.842;2022-11-15T11:10:19;81.75;;;41.63;;
23290;SDS011;11814;44.686;10.842;2022-11-15T11:12:46;84.07;;;42.40;;
23290;SDS011;11814;44.686;10.842;2022-11-15T11:15:13;82.00;;;40.22;;
23290;SDS011;11814;44.686;10.842;2022-11-15T11:29:02;83.30;;;42.40;;
23290;SDS011;11814;44.686;10.842;2022-11-15T11:31:50;75.50;;;39.35;;
23290;SDS011;11814;44.686;10.842;2022-11-15T11:34:46;77.68;;;39.22;;
23290;SDS011;11814;44.686;10.842;2022-11-15T11:37:24;72.57;;;39.05;;
23290;SDS011;11814;44.686;10.842;2022-11-15T11:39:58;82.47;;;40.17;;
23290;SDS011;11814;44.686;10.842;2022-11-15T11:42:34;77.38;;;40.45;;
23290;SDS011;11814;44.686;10.842;2022-11-15T11:50:44;79.88;;;40.70;;
23290;SDS011;11814;44.686;10.842;2022-11-15T11:55:49;81.72;;;41.42;;
23290;SDS011;11814;44.686;10.842;2022-11-15T11:58:23;81.40;;;42.33;;
23290;SDS011;11814;44.686;10.842;2022-11-15T12:01:16;81.13;;;41.58;;
23290;SDS011;11814;44.686;10.842;2022-11-15T12:03:48;80.00;;;40.90;;
23290;SDS011;11814;44.686;10.842;2022-11-15T12:06:31;78.45;;;40.92;;
23290;SDS011;11814;44.686;10.842;2022-11-15T12:09:17;84.85;;;42.30;;
23290;SDS011;11814;44.686;10.842;2022-11-15T12:17:10;89.40;;;45.15;;
23290;SDS011;11814;44.686;10.842;2022-11-15T12:19:36;82.30;;;42.97;;
23290;SDS011;11814;44.686;10.842;2022-11-15T12:24:41;77.43;;;42.13;;
23290;SDS011;11814;44.686;10.842;2022-11-15T12:30:17;82.50;;;42.80;;
23290;SDS011;11814;44.686;10.842;2022-11-15T12:33:03;85.85;;;42.63;;
23290;SDS011;11814;44.686;10.842;2022-11-15T12:35:35;89.68;;;43.67;;
23290;SDS011;11814;44.686;10.842;2022-11-15T12:38:03;84.38;;;41.53;;
23290;SDS011;11814;44.686;10.842;2022-11-15T12:40:30;86.07;;;42.47;;
23290;SDS011;11814;44.686;10.842;2022-11-15T12:45:39;93.15;;;44.55;;
23290;SDS011;11814;44.686;10.842;2022-11-15T12:58:47;85.72;;;44.33;;
23290;SDS011;11814;44.686;10.842;2022-11-15T13:06:56;90.47;;;44.78;;
23290;SDS011;11814;44.686;10.842;2022-11-15T13:11:59;88.28;;;44.67;;
23290;SDS011;11814;44.686;10.842;2022-11-15T13:17:16;94.32;;;45.53;;
23290;SDS011;11814;44.686;10.842;2022-11-15T13:19:45;91.90;;;47.13;;
23290;SDS011;11814;44.686;10.842;2022-11-15T13:22:13;85.43;;;43.60;;
23290;SDS011;11814;44.686;10.842;2022-11-15T13:24:58;81.03;;;42.53;;
23290;SDS011;11814;44.686;10.842;2022-11-15T13:27:26;90.57;;;44.20;;
23290;SDS011;11814;44.686;10.842;2022-11-15T13:29:52;82.05;;;42.08;;
23290;SDS011;11814;44.686;10.842;2022-11-15T13:32:18;84.55;;;42.55;;
23290;SDS011;11814;44.686;10.842;2022-11-15T13:34:46;90.45;;;45.53;;
23290;SDS011;11814;44.686;10.842;2022-11-15T13:39:45;90.95;;;45.70;;
23290;SDS011;11814;44.686;10.842;2022-11-15T13:42:14;84.07;;;43.22;;
23290;SDS011;11814;44.686;10.842;2022-11-15T13:44:53;83.00;;;42.25;;
23290;SDS011;11814;44.686;10.842;2022-11-15T13:47:25;82.88;;;42.63;;
23290;SDS011;11814;44.686;10.842;2022-11-15T13:49:52;84.20;;;43.17;;
23290;SDS011;11814;44.686;10.842;2022-11-15T13:52:18;81.95;;;41.92;;
23290;SDS011;11814;44.686;10.842;2022-11-15T13:55:05;81.88;;;40.95;;
23290;SDS011;11814;44.686;10.842;2022-11-15T13:57:49;76.28;;;39.90;;
23290;SDS011;11814;44.686;10.842;2022-11-15T14:03:04;73.57;;;39.15;;
23290;SDS011;11814;44.686;10.842;2022-11-15T14:05:39;74.82;;;39.65;;
23290;SDS011;11814;44.686;10.842;2022-11-15T14:08:38;77.65;;;40.08;;
23290;SDS011;11814;44.686;10.842;2022-11-15T14:11:08;81.75;;;41.80;;
23290;SDS011;11814;44.686;10.842;2022-11-15T14:13:34;84.25;;;42.78;;
23290;SDS011;11814;44.686;10.842;2022-11-15T14:16:16;86.07;;;41.50;;
23290;SDS011;11814;44.686;10.842;2022-11-15T14:18:50;87.50;;;43.25;;
23290;SDS011;11814;44.686;10.842;2022-11-15T14:21:18;81.50;;;41.15;;
23290;SDS011;11814;44.686;10.842;2022-11-15T14:23:44;83.82;;;41.67;;
23290;SDS011;11814;44.686;10.842;2022-11-15T14:26:21;81.78;;;39.97;;
23290;SDS011;11814;44.686;10.842;2022-11-15T14:28:55;78.40;;;40.00;;
23290;SDS011;11814;44.686;10.842;2022-11-15T14:31:21;77.00;;;40.10;;
23290;SDS011;11814;44.686;10.842;2022-11-15T14:33:47;73.63;;;38.65;;
23290;SDS011;11814;44.686;10.842;2022-11-15T14:38:40;68.53;;;36.80;;
23290;SDS011;11814;44.686;10.842;2022-11-15T14:41:26;77.90;;;39.63;;
23290;SDS011;11814;44.686;10.842;2022-11-15T14:43:52;80.32;;;41.05;;
23290;SDS011;11814;44.686;10.842;2022-11-15T14:46:18;96.78;;;45.80;;
23290;SDS011;11814;44.686;10.842;2022-11-15T14:48:44;89.15;;;45.30;;
23290;SDS011;11814;44.686;10.842;2022-11-15T14:51:15;86.60;;;44.85;;
23290;SDS011;11814;44.686;10.842;2022-11-15T14:53:42;86.55;;;44.72;;
23290;SDS011;11814;44.686;10.842;2022-11-15T14:56:08;94.18;;;46.47;;
23290;SDS011;11814;44.686;10.842;2022-11-15T14:58:35;99.78;;;46.72;;
23290;SDS011;11814;44.686;10.842;2022-11-15T15:01:20;84.78;;;44.17;;
23290;SDS011;11814;44.686;10.842;2022-11-15T15:03:48;86.30;;;43.97;;
23290;SDS011;11814;44.686;10.842;2022-11-15T15:06:16;84.47;;;43.72;;
23290;SDS011;11814;44.686;10.842;2022-11-15T15:08:42;95.35;;;44.58;;
23290;SDS011;11814;44.686;10.842;2022-11-15T15:11:31;95.93;;;45.25;;
23290;SDS011;11814;44.686;10.842;2022-11-15T15:13:55;96.90;;;46.65;;
23290;SDS011;11814;44.686;10.842;2022-11-15T15:16:23;91.25;;;44.47;;
23290;SDS011;11814;44.686;10.842;2022-11-15T15:18:49;89.80;;;41.00;;
23290;SDS011;11814;44.686;10.842;2022-11-15T15:21:22;92.05;;;44.80;;
23290;SDS011;11814;44.686;10.842;2022-11-15T15:23:50;103.43;;;46.67;;
23290;SDS011;11814;44.686;10.842;2022-11-15T15:26:18;102.47;;;45.45;;
23290;SDS011;11814;44.686;10.842;2022-11-15T15:28:44;101.47;;;45.30;;
23290;SDS011;11814;44.686;10.842;2022-11-15T15:31:10;95.40;;;44.42;;
23290;SDS011;11814;44.686;10.842;2022-11-15T15:33:36;109.43;;;45.88;;
23290;SDS011;11814;44.686;10.842;2022-11-15T15:36:02;107.85;;;47.45;;
23290;SDS011;11814;44.686;10.842;2022-11-15T15:38:28;104.28;;;47.72;;
23290;SDS011;11814;44.686;10.842;2022-11-15T15:40:54;96.93;;;44.55;;
23290;SDS011;11814;44.686;10.842;2022-11-15T15:43:20;105.38;;;48.30;;
23290;SDS011;11814;44.686;10.842;2022-11-15T15:45:46;104.20;;;46.67;;
23290;SDS011;11814;44.686;10.842;2022-11-15T15:48:12;107.10;;;46.58;;
23290;SDS011;11814;44.686;10.842;2022-11-15T15:50:39;104.10;;;46.80;;
23290;SDS011;11814;44.686;10.842;2022-11-15T15:53:08;113.85;;;48.88;;
23290;SDS011;11814;44.686;10.842;2022-11-15T15:55:35;103.03;;;47.10;;
23290;SDS011;11814;44.686;10.842;2022-11-15T15:58:02;103.88;;;45.75;;
23290;SDS011;11814;44.686;10.842;2022-11-15T16:00:28;115.95;;;49.05;;
23290;SDS011;11814;44.686;10.842;2022-11-15T16:02:54;112.65;;;47.75;;
23290;SDS011;11814;44.686;10.842;2022-11-15T16:05:20;98.90;;;45.53;;
23290;SDS011;11814;44.686;10.842;2022-11-15T16:07:47;92.75;;;45.20;;
23290;SDS011;11814;44.686;10.842;2022-11-15T16:10:15;88.28;;;42.30;;
23290;SDS011;11814;44.686;10.842;2022-11-15T16:12:47;91.00;;;43.28;;
23290;SDS011;11814;44.686;10.842;2022-11-15T16:15:13;93.80;;;43.22;;
23290;SDS011;11814;44.686;10.842;2022-11-15T16:17:40;81.25;;;41.50;;
23290;SDS011;11814;44.686;10.842;2022-11-15T16:22:55;100.80;;;43.78;;
23290;SDS011;11814;44.686;10.842;2022-11-15T16:25:22;101.20;;;45.33;;
23290;SDS011;11814;44.686;10.842;2022-11-15T16:27:48;97.35;;;45.15;;
23290;SDS011;11814;44.686;10.842;2022-11-15T16:30:14;104.60;;;47.03;;
23290;SDS011;11814;44.686;10.842;2022-11-15T16:32:41;103.22;;;46.50;;
23290;SDS011;11814;44.686;10.842;2022-11-15T16:35:09;98.40;;;44.72;;
23290;SDS011;11814;44.686;10.842;2022-11-15T16:37:39;88.90;;;43.88;;
23290;SDS011;11814;44.686;10.842;2022-11-15T16:42:50;89.93;;;43.38;;